x

Orange Beach - 44 Nm Se Of Mobile, Al (42012) Wave Buoy

4:50pm - Mon 1st Sep 2014 All times are CDT. -5 hours from GMT.

  • Sig Wave height 3.3ft
  • Swell Direction
  • Peak Period 7s
  • Average Period 5s
  • Wind
    13mph, 16mph gusts
  • Sea Temp 86°f
  • Air Temp 86°f
  • Sea Pressure 1016.8mb
  • Orange Beach - 44 Nm Se Of Mobile, Al
  • Orange Beach - 44 Nm Se Of Mobile, Al

More Historic Weather Station data

Upgrade to MSW Pro to gain access to the past 30 days of data for over 8000 Wavebouys and Weather Stations around the globe.

Join Pro

Comparision Forecast

View Surf forecast
   
Mon 09/01 4:50pm 3.5ft 7s 5s 13 16 mph 1016.8mb 86f 86f
3:50pm 3.5ft 8s 5s 13 16 mph 1017.4mb 86f 86f
2:50pm 3.5ft 8s 5s 13 18 mph 1018mb 86f 85f
1:50pm 3.5ft 8s 5s 13 16 mph 1018.6mb 86f 85f
12:50pm 3.5ft 8s 5s 11 13 mph 1018.9mb 86f 85f
11:50am 3.5ft 8s 5s 11 13 mph 1019.3mb 86f 85f
10:50am 3.5ft 8s 5s 11 13 mph 1019.5mb 86f 85f
9:50am 3.5ft 8s 5s 11 13 mph 1019.2mb 86f 85f
8:50am 3.5ft 8s 5s 11 13 mph 1018.7mb 86f 85f
7:50am 3.5ft 8s 5s 11 16 mph 1018.3mb 85f 84f
6:50am 3.5ft 6s 5s 9 11 mph 1017.9mb 86f 84f
5:50am 3ft 7s 5s 9
mph
1017.3mb 86f 84f
4:50am 3.5ft 6s 5s 9 11 mph 1016.8mb 86f 84f
3:50am 3.5ft 7s 5s 9 11 mph 1016.7mb 86f 84f
2:50am 3.5ft 7s 5s 11 13 mph 1016.9mb 86f 84f
1:50am 3ft 8s 5s 11 13 mph 1017.6mb 86f 84f
12:50am 3ft 7s 5s 11 16 mph 1017.9mb 86f 85f
Sun 08/31 11:50pm 3ft 8s 5s 9 11 mph 1018.3mb 86f 85f
10:50pm 3ft 7s 5s 11 13 mph 1018.7mb 86f 85f
9:50pm 3ft 8s 6s 11
mph
1018.5mb 86f 85f
8:50pm 3ft 7s 5s 9
mph
1018.5mb 86f 85f
7:50pm 3.5ft 7s 5s 9 11 mph 1018.1mb 86f 85f
6:50pm 3ft 8s 5s 9 11 mph 1018mb 86f 85f
5:50pm 3.5ft 7s 5s 7 9 mph 1017.9mb 87f 86f
4:50pm 3.5ft 7s 5s 7 9 mph 1017.9mb 87f 86f
3:50pm 3ft 7s 5s 11 13 mph 1018mb 87f 86f
2:50pm 3ft 7s 5s 11
mph
1018.5mb 87f 85f
1:50pm 3.5ft 7s 5s 9 11 mph 1019.2mb 86f 85f
12:50pm 3.5ft 7s 5s 9 11 mph 1019.5mb 86f 85f
11:50am 3.5ft 6s 5s 9 11 mph 1020mb 86f 85f
10:50am 3ft 7s 5s 7 9 mph 1020mb 86f 85f
9:50am 3.5ft 7s 5s 4
mph
1019.7mb 85f 85f
8:50am 3ft 7s 5s 11 13 mph 1019.5mb 85f 84f
7:50am 3ft 7s 5s 11 13 mph 1019.2mb 85f 85f
6:50am 3ft 6s 5s 9 13 mph 1018.9mb 85f 85f
5:50am 3ft 6s 5s 7 9 mph 1018.2mb 85f 85f
4:50am 3ft 6s 5s 11
mph
1017.6mb 85f 85f
3:50am 3ft 6s 5s 13 16 mph 1017.7mb 85f 85f
2:50am 3ft 6s 5s 11 13 mph 1017.9mb 85f 85f
1:50am 3.5ft 6s 5s 11 13 mph 1018.1mb 85f 85f
12:50am 3ft 6s 5s 11 13 mph 1018.2mb 85f 85f
Sat 08/30 11:50pm 3ft 6s 5s 11 13 mph 1018.5mb 85f 85f
10:50pm 3ft 6s 5s 11 13 mph 1018.7mb 85f 85f
9:50pm 3.5ft 5s 5s 11 13 mph 1018.7mb 86f 85f
8:50pm 3.5ft 6s 4s 11 13 mph 1018mb 86f 85f
7:50pm 3.5ft 6s 4s 13 16 mph 1017.7mb 86f 85f
6:50pm 3.5ft 5s 4s 11 13 mph 1017.6mb 86f 85f
5:50pm 3.5ft 5s 4s 13 16 mph 1017.3mb 86f 85f
4:50pm 3.5ft 5s 4s 16 18 mph 1017.2mb 86f 85f
3:50pm 3.5ft 6s 4s 16 20 mph 1017.4mb 86f 86f
2:50pm 3.5ft 6s 4s 18 20 mph 1017.7mb 86f 86f
1:50pm 3.5ft 6s 4s 18 22 mph 1017.8mb 86f 85f
12:50pm 3ft 6s 4s 16 18 mph 1018.3mb 86f 85f
11:50am 2.5ft 5s 4s 16 18 mph 1018.5mb 85f 85f
10:50am 2.5ft 6s 4s 16 18 mph 1018.6mb 85f 85f
9:50am 2.5ft 5s 4s 13 16 mph 1018.7mb 85f 85f
8:50am 2.5ft 5s 4s 16 18 mph 1017.8mb 85f 84f
7:50am 2.5ft 5s 4s 13 16 mph 1017.5mb 85f 84f
6:50am 2.5ft 5s 4s 11 13 mph 1017.5mb 85f 84f
5:50am 2.5ft 5s 4s 9 11 mph 1017.3mb 85f 83f
4:50am 2.5ft 5s 4s 9 11 mph 1017.1mb 85f 83f
3:50am 2.5ft 5s 4s 13 16 mph 1016.8mb 85f 82f
2:50am 2.5ft 7s 4s 13 16 mph 1016.7mb 85f 82f
1:50am 2.5ft 6s 4s 16 18 mph 1017.3mb 85f 82f
12:50am 2.5ft 6s 5s 16 18 mph 1017.9mb 85f 82f
Fri 08/29 11:50pm 2.5ft 6s 5s 11 13 mph 1017.8mb 85f 80f
10:50pm 2.5ft 6s 4s 7 9 mph 1017.3mb 85f 80f
9:50pm 2.5ft 7s 4s 11 18 mph 1017.6mb 85f 79f
8:50pm 3ft 6s 4s 16 20 mph 1017.3mb 85f 76f
7:50pm 3ft 6s 5s 2
mph
1016.2mb 85f 81f
6:50pm 3ft 5s 5s 2 4 mph 1015.4mb 85f 79f
5:50pm 3ft 6s 4s 11 13 mph 1015.9mb 85f 80f
4:50pm 3.5ft 5s 4s 11 16 mph 1015.5mb 85f 83f
3:50pm 3.5ft 6s 4s 7 9 mph 1015.2mb 85f 83f
2:50pm 3.5ft 5s 4s 2 4 mph 1014.6mb 85f 83f
1:50pm 3.5ft 4s 4s 9 11 mph 1015.1mb 86f 83f
12:50pm 3.5ft 4s 4s 16 20 mph 1015.8mb 86f 82f
11:50am 3.5ft 6s 4s 20 25 mph 1016.1mb 85f 84f
10:50am 3ft 6s 4s 18 20 mph 1015.6mb 85f 85f
9:50am 2.5ft 5s 4s 13 18 mph 1015.9mb 85f 85f
8:50am 2.5ft 6s 4s 16 18 mph 1015.2mb 85f 85f
7:50am 2.5ft 5s 4s 16 18 mph 1014.8mb 85f 84f
6:50am 2.5ft 5s 4s 11 13 mph 1014.7mb 85f 84f
5:50am 2.5ft 5s 4s 7 11 mph 1014.3mb 85f 84f
4:50am 2.5ft 5s 4s 7 9 mph 1014.1mb 85f 84f
3:50am 2.5ft 5s 4s 11 13 mph 1014.3mb 85f 84f
2:50am 2.5ft 5s 4s 16 18 mph 1014.4mb 85f 85f
1:50am 2.5ft 7s 4s 11 13 mph 1014.6mb 85f 85f
12:50am 2.5ft 7s 4s 9 11 mph 1015.1mb 85f 84f
Thu 08/28 11:50pm 2ft 7s 4s 11
mph
1015.2mb 85f 84f
10:50pm 2.5ft 7s 4s 13 16 mph 1015.1mb 85f 84f